Time;durP1;ratioP1;P1;durP2;ratioP2;P2;SDS_P1;SDS_P2;PMS_P1;PMS_P2;Temp;Humidity;BMP_temperature;BMP_pressure;BME280_temperature;BME280_humidity;BME280_pressure;Samples;Min_cycle;Max_cycle;Signal;HPM_P1;HPM_P2
2023/08/02 00:01:13;;;;;;;9.00;4.70;;;;;;;17.14;90.97;98761.75;103264;1254;137938;-73
2023/08/02 00:03:40;;;;;;;6.30;4.70;;;;;;;17.13;91.18;98764.27;103306;1254;107113;-73
2023/08/02 00:06:07;;;;;;;7.10;4.60;;;;;;;17.12;90.80;98768.54;103194;1254;138057;-73
2023/08/02 00:08:37;;;;;;;8.00;4.90;;;;;;;17.13;90.77;98767.27;103247;1253;106842;-73
2023/08/02 00:11:04;;;;;;;6.80;4.40;;;;;;;17.13;90.53;98765.88;103361;1256;97228;-73
2023/08/02 00:13:31;;;;;;;7.40;4.70;;;;;;;17.10;90.78;98768.21;103655;1253;137887;-73
2023/08/02 00:15:58;;;;;;;6.00;4.60;;;;;;;17.08;90.85;98768.02;103344;1257;107772;-73
2023/08/02 00:18:25;;;;;;;5.90;4.50;;;;;;;17.08;90.72;98769.09;103247;1253;138038;-73
2023/08/02 00:20:52;;;;;;;7.30;4.90;;;;;;;17.09;90.66;98765.16;103381;1253;107991;-75
2023/08/02 00:23:20;;;;;;;5.60;4.60;;;;;;;17.10;90.61;98758.23;103320;1253;96466;-74
2023/08/02 00:25:47;;;;;;;6.10;5.10;;;;;;;17.10;90.38;98763.81;103280;1253;137847;-74
2023/08/02 00:28:14;;;;;;;6.90;4.60;;;;;;;17.12;90.55;98766.84;103302;1257;107554;-74
2023/08/02 00:30:47;;;;;;;6.60;5.00;;;;;;;17.12;90.35;98768.40;103210;1253;138141;-73
2023/08/02 00:33:16;;;;;;;6.00;4.20;;;;;;;17.13;90.29;98760.61;103489;1258;108512;-74
2023/08/02 00:35:48;;;;;;;6.70;4.50;;;;;;;17.15;90.12;98765.56;103242;1253;96457;-74
2023/08/02 00:38:16;;;;;;;6.80;4.10;;;;;;;17.15;90.10;98770.94;103359;1256;110451;-73
2023/08/02 00:40:54;;;;;;;6.70;4.50;;;;;;;17.16;89.79;98770.50;103313;1253;107135;-73
2023/08/02 00:43:23;;;;;;;5.50;4.00;;;;;;;17.16;89.89;98779.48;103220;1256;138081;-72
2023/08/02 00:45:50;;;;;;;5.60;4.40;;;;;;;17.16;89.80;98785.64;103309;1253;108007;-73
2023/08/02 00:48:18;;;;;;;8.00;4.60;;;;;;;17.14;89.60;98781.89;103222;1253;138088;-73
2023/08/02 00:50:47;;;;;;;7.00;4.60;;;;;;;17.16;89.68;98780.35;103272;1253;109516;-73
2023/08/02 00:53:14;;;;;;;5.70;4.20;;;;;;;17.17;89.61;98780.98;103275;1253;108389;-72
2023/08/02 00:55:42;;;;;;;9.00;4.60;;;;;;;17.17;89.26;98777.05;102985;1259;289133;-73
2023/08/02 00:58:09;;;;;;;6.20;4.60;;;;;;;17.18;89.29;98775.27;103221;1258;106864;-71
2023/08/02 01:00:36;;;;;;;6.30;4.40;;;;;;;17.19;89.11;98773.22;103206;1255;137895;-71
2023/08/02 01:03:03;;;;;;;6.60;4.40;;;;;;;17.21;88.89;98776.41;103218;1257;111471;-72
2023/08/02 01:05:38;;;;;;;9.50;5.00;;;;;;;17.20;88.74;98778.07;103267;1258;108501;-72
2023/08/02 01:08:09;;;;;;;7.50;4.50;;;;;;;17.19;88.63;98777.84;103228;1258;138308;-71
2023/08/02 01:10:45;;;;;;;5.80;4.30;;;;;;;17.18;88.60;98780.02;103266;1257;107680;-71
2023/08/02 01:13:15;;;;;;;9.30;4.50;;;;;;;17.18;88.49;98785.48;103139;1256;138598;-71
2023/08/02 01:15:42;;;;;;;6.90;4.00;;;;;;;17.18;88.48;98791.04;103259;1259;110059;-72
2023/08/02 01:18:10;;;;;;;5.40;4.20;;;;;;;17.27;88.56;98798.83;103110;1253;138134;-71
2023/08/02 01:20:37;;;;;;;5.20;4.30;;;;;;;17.33;88.28;98801.30;103280;1258;95841;-71
2023/08/02 01:23:04;;;;;;;5.30;4.10;;;;;;;17.34;87.96;98803.65;103278;1260;107368;-71
2023/08/02 01:25:34;;;;;;;5.40;4.00;;;;;;;17.34;87.81;98802.23;103135;1258;137899;-71
2023/08/02 01:28:05;;;;;;;8.10;4.40;;;;;;;17.36;87.66;98803.66;103257;1257;111116;-71
2023/08/02 01:30:38;;;;;;;4.80;4.20;;;;;;;17.33;87.54;98795.33;103161;1258;137912;-70
2023/08/02 01:33:05;;;;;;;8.70;3.90;;;;;;;17.37;87.64;98790.02;103409;1256;96427;-70
2023/08/02 01:35:33;;;;;;;4.70;3.70;;;;;;;17.42;87.24;98782.96;104596;1254;107984;-70
2023/08/02 01:38:02;;;;;;;4.40;3.80;;;;;;;17.45;87.05;98781.11;103246;1254;137758;-70
2023/08/02 01:40:31;;;;;;;9.20;4.30;;;;;;;17.44;86.69;98782.79;103371;1256;110676;-69
2023/08/02 01:42:58;;;;;;;8.00;4.50;;;;;;;17.38;86.33;98785.70;103190;1257;139010;-70
2023/08/02 01:45:25;;;;;;;6.50;4.00;;;;;;;17.36;86.59;98791.67;103407;1258;97626;-70
2023/08/02 01:47:54;;;;;;;8.70;4.40;;;;;;;17.39;86.68;98793.58;103282;1254;138137;-67
2023/08/02 01:50:21;;;;;;;8.50;4.10;;;;;;;17.39;86.45;98795.10;103758;1254;96346;-70
2023/08/02 01:52:49;;;;;;;5.30;3.70;;;;;;;17.38;86.52;98798.52;103404;1256;111884;-70
2023/08/02 01:55:16;;;;;;;5.90;4.00;;;;;;;17.42;86.53;98799.98;103231;1254;137996;-70
2023/08/02 01:57:43;;;;;;;5.70;3.80;;;;;;;17.40;86.35;98802.91;103348;1256;97856;-70
2023/08/02 02:00:12;;;;;;;6.80;4.30;;;;;;;17.37;86.04;98802.67;103214;1253;138025;-70
2023/08/02 02:02:41;;;;;;;7.10;4.40;;;;;;;17.33;86.10;98798.93;103578;1258;96524;-70
2023/08/02 02:05:10;;;;;;;6.60;3.70;;;;;;;17.34;86.24;98802.90;103336;1259;110578;-70
2023/08/02 02:07:37;;;;;;;7.70;4.00;;;;;;;17.35;86.19;98804.27;103421;1254;137978;-71
2023/08/02 02:10:06;;;;;;;6.90;4.20;;;;;;;17.35;86.25;98805.29;103261;1256;96548;-70
2023/08/02 02:12:33;;;;;;;6.40;4.40;;;;;;;17.33;86.10;98807.94;103491;1257;140598;-71
2023/08/02 02:15:00;;;;;;;7.50;4.00;;;;;;;17.28;86.08;98811.86;103309;1259;96473;-71
2023/08/02 02:17:27;;;;;;;7.70;4.00;;;;;;;17.27;86.19;98812.53;103357;1253;110354;-70
2023/08/02 02:19:54;;;;;;;5.50;4.00;;;;;;;17.25;86.17;98814.27;103268;1257;138018;-69
2023/08/02 02:22:21;;;;;;;7.10;4.10;;;;;;;17.24;86.39;98812.38;103411;1255;97009;-70
2023/08/02 02:24:49;;;;;;;6.40;4.20;;;;;;;17.24;86.16;98809.27;103257;1255;137733;-69
2023/08/02 02:27:16;;;;;;;7.70;4.50;;;;;;;17.17;86.09;98803.84;103367;1259;96326;-70
2023/08/02 02:29:44;;;;;;;5.40;4.30;;;;;;;17.12;86.34;98804.23;103294;1257;109871;-70
2023/08/02 02:32:11;;;;;;;5.10;3.80;;;;;;;17.13;86.44;98799.23;103289;1258;108492;-69
2023/08/02 02:34:38;;;;;;;6.80;4.20;;;;;;;17.14;86.39;98802.96;103356;1256;96460;-70
2023/08/02 02:37:06;;;;;;;6.50;3.90;;;;;;;17.09;86.13;98809.61;103600;1257;137816;-70
2023/08/02 02:39:34;;;;;;;6.00;4.40;;;;;;;17.06;86.33;98809.15;104030;1256;96417;-70
2023/08/02 02:42:01;;;;;;;6.70;4.20;;;;;;;17.04;86.52;98803.45;103304;1256;137899;-69
2023/08/02 02:44:42;;;;;;;5.70;3.80;;;;;;;17.00;86.44;98803.83;103309;1254;107633;-70
2023/08/02 02:47:09;;;;;;;6.70;4.70;;;;;;;16.95;86.24;98797.55;103806;1257;96437;-70
2023/08/02 02:49:36;;;;;;;7.60;4.10;;;;;;;16.89;86.43;98799.77;103217;1257;137785;-70
2023/08/02 02:52:03;;;;;;;9.60;4.30;;;;;;;16.84;86.58;98800.15;103324;1255;96626;-71
2023/08/02 02:54:30;;;;;;;5.90;4.30;;;;;;;16.79;86.65;98800.63;103245;1257;138447;-70
2023/08/02 02:56:57;;;;;;;6.10;4.30;;;;;;;16.80;87.10;98806.45;103327;1256;107724;-70
2023/08/02 02:59:27;;;;;;;6.60;4.50;;;;;;;16.80;87.13;98807.67;103363;1254;96981;-70
2023/08/02 03:01:54;;;;;;;8.30;4.50;;;;;;;16.78;86.96;98811.24;103174;1258;137880;-70
2023/08/02 03:04:21;;;;;;;7.30;4.20;;;;;;;16.71;87.01;98820.23;103436;1259;96418;-70
2023/08/02 03:06:49;;;;;;;8.60;4.70;;;;;;;16.68;87.20;98818.34;103249;1256;137755;-70
2023/08/02 03:09:16;;;;;;;8.80;4.40;;;;;;;16.67;87.27;98821.75;103319;1252;108322;-70
2023/08/02 03:11:43;;;;;;;8.50;4.90;;;;;;;16.63;87.18;98825.38;103353;1253;96453;-70
2023/08/02 03:14:10;;;;;;;6.10;4.30;;;;;;;16.60;87.19;98825.43;103282;1256;137919;-69
2023/08/02 03:16:37;;;;;;;6.40;4.40;;;;;;;16.57;87.45;98824.27;103394;1259;96446;-70
2023/08/02 03:19:05;;;;;;;5.90;4.30;;;;;;;16.54;87.56;98822.80;103661;1257;137887;-70
2023/08/02 03:21:33;;;;;;;7.00;4.50;;;;;;;16.52;87.74;98821.15;103447;1253;106678;-70
2023/08/02 03:24:00;;;;;;;5.90;4.50;;;;;;;16.53;87.98;98818.78;103342;1254;138108;-70
2023/08/02 03:26:27;;;;;;;10.10;4.50;;;;;;;16.51;87.90;98815.08;103301;1257;107127;-70
2023/08/02 03:28:55;;;;;;;6.10;4.30;;;;;;;16.49;87.89;98817.38;103363;1254;96448;-70
2023/08/02 03:31:22;;;;;;;7.80;4.40;;;;;;;16.46;87.94;98821.49;103245;1264;137768;-69
2023/08/02 03:33:49;;;;;;;6.50;4.50;;;;;;;16.44;88.18;98824.61;103278;1253;107571;-69
2023/08/02 03:36:17;;;;;;;8.50;4.70;;;;;;;16.47;88.38;98830.34;103337;1257;138149;-69
2023/08/02 03:38:44;;;;;;;5.70;4.10;;;;;;;16.48;88.37;98830.08;103423;1254;108363;-70
2023/08/02 03:41:11;;;;;;;6.60;4.40;;;;;;;16.47;88.04;98832.45;103405;1261;96444;-69
2023/08/02 03:43:39;;;;;;;6.00;4.30;;;;;;;16.44;88.28;98832.48;103271;1255;137808;-69
2023/08/02 03:46:06;;;;;;;6.40;4.80;;;;;;;16.45;88.23;98834.54;103368;1254;107581;-69
2023/08/02 03:48:37;;;;;;;9.40;4.30;;;;;;;16.43;88.22;98839.80;103499;1256;138088;-69
2023/08/02 03:51:04;;;;;;;5.60;4.30;;;;;;;16.43;88.42;98842.92;103301;1259;108856;-70
2023/08/02 03:53:33;;;;;;;7.30;4.70;;;;;;;16.46;88.43;98843.08;103504;1254;97499;-70
2023/08/02 03:56:00;;;;;;;11.40;5.10;;;;;;;16.44;88.17;98847.96;103321;1254;137906;-69
2023/08/02 03:58:27;;;;;;;6.80;4.70;;;;;;;16.42;88.13;98852.32;103394;1254;108516;-70
2023/08/02 04:00:55;;;;;;;10.10;4.70;;;;;;;16.43;88.24;98848.37;103303;1257;138710;-71
2023/08/02 04:03:22;;;;;;;7.80;4.50;;;;;;;16.43;88.29;98845.54;103341;1257;108570;-71
2023/08/02 04:05:49;;;;;;;6.20;5.00;;;;;;;16.42;88.26;98848.44;103448;1255;96429;-70
2023/08/02 04:08:16;;;;;;;7.90;4.50;;;;;;;16.42;88.36;98849.48;103270;1255;110723;-70
2023/08/02 04:10:46;;;;;;;7.30;5.10;;;;;;;16.42;88.51;98854.73;103232;1262;106933;-70
2023/08/02 04:13:14;;;;;;;8.20;4.80;;;;;;;16.49;88.65;98854.55;103193;1257;137921;-70
2023/08/02 04:15:41;;;;;;;7.60;4.90;;;;;;;16.57;88.56;98855.35;103312;1257;108372;-70
2023/08/02 04:18:09;;;;;;;7.60;4.80;;;;;;;16.65;88.38;98857.54;103198;1257;138599;-70
2023/08/02 04:20:39;;;;;;;8.40;4.80;;;;;;;16.73;88.10;98858.16;103381;1257;111423;-70
2023/08/02 04:23:06;;;;;;;6.60;4.50;;;;;;;16.79;87.75;98859.23;103297;1254;107055;-70
2023/08/02 04:25:34;;;;;;;7.90;4.40;;;;;;;16.81;87.21;98858.73;103556;1256;137984;-70
2023/08/02 04:28:01;;;;;;;7.60;5.20;;;;;;;16.84;87.15;98861.11;103336;1254;108101;-70
2023/08/02 04:30:28;;;;;;;5.40;4.00;;;;;;;16.89;86.99;98860.54;103210;1257;138099;-70
2023/08/02 04:32:58;;;;;;;6.80;5.10;;;;;;;16.95;86.54;98862.90;103326;1257;110092;-70
2023/08/02 04:35:25;;;;;;;6.90;4.10;;;;;;;17.01;86.53;98865.70;103265;1256;107044;-70
2023/08/02 04:37:52;;;;;;;7.20;4.60;;;;;;;17.11;86.39;98864.94;103228;1253;139030;-70
2023/08/02 04:40:19;;;;;;;7.90;4.00;;;;;;;17.17;85.74;98863.33;103309;1253;107671;-70
2023/08/02 04:42:47;;;;;;;7.50;4.40;;;;;;;17.27;85.74;98869.23;103193;1258;138076;-69
2023/08/02 04:45:14;;;;;;;6.30;4.20;;;;;;;17.39;85.16;98865.94;103340;1254;110171;-70
2023/08/02 04:47:41;;;;;;;6.10;4.30;;;;;;;17.55;85.08;98869.02;103215;1258;107837;-70
2023/08/02 04:50:09;;;;;;;6.50;5.00;;;;;;;17.68;84.41;98880.48;103148;1257;137998;-70
2023/08/02 04:52:37;;;;;;;5.80;4.50;;;;;;;17.80;83.82;98882.45;103268;1254;106808;-67
2023/08/02 04:55:06;;;;;;;7.80;4.60;;;;;;;17.91;83.40;98884.32;103137;1254;137939;-69
2023/08/02 04:57:33;;;;;;;5.80;3.90;;;;;;;18.00;82.73;98881.95;103323;1255;111359;-69
2023/08/02 05:00:01;;;;;;;8.10;3.90;;;;;;;18.13;82.39;98883.71;103071;1257;138539;-70
2023/08/02 05:02:33;;;;;;;6.50;3.90;;;;;;;18.23;81.53;98883.18;103313;1257;96513;-72
2023/08/02 05:05:02;;;;;;;7.50;4.00;;;;;;;18.34;81.03;98885.39;103303;1254;109266;-71
2023/08/02 05:07:31;;;;;;;9.60;4.00;;;;;;;18.43;80.53;98887.27;103045;1255;137912;-73
2023/08/02 05:09:59;;;;;;;6.70;4.00;;;;;;;18.62;80.57;98888.44;103208;1254;110970;-72
2023/08/02 05:12:26;;;;;;;5.60;3.50;;;;;;;18.79;80.11;98886.15;103104;1253;138112;-71
2023/08/02 05:14:53;;;;;;;7.80;4.10;;;;;;;18.99;79.84;98885.73;103316;1254;96918;-72
2023/08/02 05:17:20;;;;;;;5.90;4.00;;;;;;;19.23;78.94;98882.00;103242;1254;107810;-71
2023/08/02 05:19:47;;;;;;;8.80;4.30;;;;;;;19.48;78.15;98883.14;103097;1257;138097;-72
2023/08/02 05:22:14;;;;;;;6.70;3.80;;;;;;;20.32;78.10;98882.27;103326;1254;112280;-69
2023/08/02 05:24:41;;;;;;;5.70;3.70;;;;;;;21.98;75.81;98887.19;103158;1254;137237;-70
2023/08/02 05:27:08;;;;;;;7.50;3.50;;;;;;;23.63;72.01;98877.04;103322;1256;96466;-70
2023/08/02 05:29:35;;;;;;;9.10;3.90;;;;;;;25.41;68.96;98875.63;103276;1253;108318;-70
2023/08/02 05:32:02;;;;;;;5.70;3.30;;;;;;;26.99;63.80;98867.95;103229;1254;137245;-70
2023/08/02 05:34:29;;;;;;;4.20;3.10;;;;;;;28.07;61.55;98868.90;103300;1252;110001;-70
2023/08/02 05:36:56;;;;;;;5.60;3.10;;;;;;;29.46;58.87;98866.32;103173;1257;138125;-69
2023/08/02 05:39:23;;;;;;;3.20;2.80;;;;;;;30.71;55.78;98866.05;103272;1258;96438;-70
2023/08/02 05:41:50;;;;;;;7.20;3.10;;;;;;;31.71;53.05;98866.46;103183;1255;137220;-69
2023/08/02 05:44:18;;;;;;;4.30;2.60;;;;;;;32.61;50.84;98869.59;103326;1257;96441;-69
2023/08/02 05:46:45;;;;;;;3.80;3.20;;;;;;;33.60;47.58;98870.49;103292;1255;102408;-70
2023/08/02 05:49:12;;;;;;;4.10;2.50;;;;;;;34.25;45.21;98870.40;103149;1256;137220;-70
2023/08/02 05:51:40;;;;;;;6.40;2.60;;;;;;;34.86;44.08;98868.13;103214;1257;96580;-69
2023/08/02 05:54:07;;;;;;;5.80;2.80;;;;;;;35.54;42.54;98869.38;103414;1254;137809;-74
2023/08/02 05:56:34;;;;;;;5.30;2.70;;;;;;;36.14;41.22;98868.67;103844;1254;96453;-72
2023/08/02 05:59:01;;;;;;;4.40;2.60;;;;;;;36.63;39.73;98872.98;103309;1254;101187;-70
2023/08/02 06:01:28;;;;;;;3.50;2.30;;;;;;;36.88;38.54;98871.58;103489;1255;137421;-70
2023/08/02 06:03:55;;;;;;;6.90;2.90;;;;;;;36.82;38.12;98872.54;103377;1254;96831;-69
2023/08/02 06:06:23;;;;;;;4.70;3.00;;;;;;;36.75;37.59;98877.44;103342;1257;137605;-70
2023/08/02 06:08:50;;;;;;;5.70;2.40;;;;;;;36.98;36.81;98880.02;103637;1255;96487;-70
2023/08/02 06:11:17;;;;;;;5.60;2.50;;;;;;;37.52;36.56;98876.27;103252;1257;103436;-70
2023/08/02 06:13:44;;;;;;;3.50;2.50;;;;;;;38.21;35.55;98880.20;103224;1253;137898;-69
2023/08/02 06:16:11;;;;;;;3.80;2.40;;;;;;;38.52;34.63;98884.70;103428;1254;96469;-69
2023/08/02 06:18:38;;;;;;;8.60;2.40;;;;;;;38.79;34.46;98885.73;103215;1254;137097;-65
2023/08/02 06:21:06;;;;;;;8.70;3.30;;;;;;;39.06;33.65;98888.36;103254;1254;96349;-66
2023/08/02 06:23:32;;;;;;;10.60;3.60;;;;;;;38.51;32.86;98890.58;103270;1257;109913;-66
2023/08/02 06:25:59;;;;;;;6.50;3.10;;;;;;;37.57;33.19;98894.66;103188;1257;137470;-67
2023/08/02 06:28:26;;;;;;;4.90;3.20;;;;;;;36.84;32.59;98902.00;103363;1257;96432;-66
2023/08/02 06:30:53;;;;;;;9.70;4.00;;;;;;;35.66;32.85;98901.38;103244;1257;137062;-66
2023/08/02 06:33:20;;;;;;;6.40;2.90;;;;;;;35.50;33.70;98897.36;103344;1254;96481;-66
2023/08/02 06:35:48;;;;;;;7.20;2.60;;;;;;;36.15;33.43;98893.42;103354;1254;101550;-66
2023/08/02 06:38:15;;;;;;;5.10;2.60;;;;;;;37.09;33.18;98892.25;103244;1254;99852;-65
2023/08/02 06:40:42;;;;;;;11.40;3.30;;;;;;;37.88;32.29;98892.18;103337;1254;96432;-66
2023/08/02 06:43:09;;;;;;;6.30;2.40;;;;;;;38.20;31.65;98897.02;103662;1254;137522;-66
2023/08/02 06:45:37;;;;;;;6.20;2.60;;;;;;;38.72;31.08;98901.01;103369;1253;96453;-66
2023/08/02 06:48:06;;;;;;;4.70;2.60;;;;;;;39.08;30.68;98903.42;103223;1257;137916;-67
2023/08/02 06:50:38;;;;;;;5.80;2.80;;;;;;;39.41;30.40;98902.27;103258;1254;100292;-66
2023/08/02 06:53:07;;;;;;;5.70;2.80;;;;;;;40.09;30.08;98899.35;103631;1254;96507;-67
2023/08/02 06:55:34;;;;;;;5.30;2.60;;;;;;;40.77;28.81;98904.06;103453;1253;137359;-67
2023/08/02 06:58:01;;;;;;;5.50;2.50;;;;;;;41.10;28.35;98909.02;103300;1255;96341;-67
2023/08/02 07:00:32;;;;;;;7.40;2.70;;;;;;;41.57;27.78;98907.58;103812;1253;137401;-67
2023/08/02 07:03:02;;;;;;;5.40;2.20;;;;;;;42.15;27.23;98907.68;103315;1254;100084;-67
2023/08/02 07:05:29;;;;;;;4.70;2.50;;;;;;;42.54;26.53;98913.95;103426;1253;96430;-67
2023/08/02 07:07:57;;;;;;;3.10;2.30;;;;;;;42.72;26.14;98916.61;103282;1257;137766;-67
2023/08/02 07:10:24;;;;;;;5.00;1.80;;;;;;;42.94;25.09;98919.09;103412;1254;96463;-67
2023/08/02 07:12:51;;;;;;;3.60;2.10;;;;;;;42.66;24.62;98922.05;103307;1257;137672;-67
2023/08/02 07:15:19;;;;;;;6.60;2.20;;;;;;;42.24;24.71;98925.20;103372;1257;100238;-67
2023/08/02 07:17:47;;;;;;;3.80;2.20;;;;;;;40.95;24.76;98927.12;103308;1256;96549;-67
2023/08/02 07:20:19;;;;;;;6.00;2.40;;;;;;;39.21;25.46;98926.47;103268;1256;101110;-67
2023/08/02 07:22:46;;;;;;;2.40;2.00;;;;;;;37.58;26.65;98925.73;103306;1257;96419;-67
2023/08/02 07:25:13;;;;;;;7.00;2.20;;;;;;;37.22;27.61;98926.73;103306;1257;137180;-67
2023/08/02 07:27:40;;;;;;;6.20;2.20;;;;;;;37.78;27.56;98924.89;103324;1254;99832;-65
2023/08/02 07:30:11;;;;;;;3.20;1.90;;;;;;;38.26;27.21;98921.64;103311;1253;137319;-66
2023/08/02 07:32:38;;;;;;;2.80;2.10;;;;;;;37.95;26.85;98922.38;103439;1254;99713;-65
2023/08/02 07:35:06;;;;;;;5.70;2.30;;;;;;;36.73;27.45;98924.72;103435;1252;96732;-65
2023/08/02 07:37:33;;;;;;;3.90;2.30;;;;;;;36.53;27.76;98921.73;103578;1252;137313;-66
2023/08/02 07:40:01;;;;;;;5.50;2.40;;;;;;;36.73;27.84;98922.39;103492;1257;100136;-67
2023/08/02 07:42:28;;;;;;;5.60;2.50;;;;;;;37.12;27.56;98929.61;103070;1258;137663;-66
2023/08/02 07:45:12;;;;;;;4.20;2.10;;;;;;;37.36;27.52;98926.46;103369;1254;99671;-66
2023/08/02 07:47:40;;;;;;;7.30;2.60;;;;;;;37.78;27.50;98923.66;103347;1257;97271;-66
2023/08/02 07:50:09;;;;;;;5.40;2.20;;;;;;;37.80;27.14;98928.88;103724;1252;137124;-66
2023/08/02 07:52:36;;;;;;;4.40;2.10;;;;;;;36.84;27.84;98934.19;103381;1257;111800;-66
2023/08/02 07:55:03;;;;;;;8.50;2.20;;;;;;;36.25;28.59;98934.44;103209;1254;137300;-66
2023/08/02 07:57:33;;;;;;;6.40;2.50;;;;;;;35.90;28.77;98935.67;103329;1257;100743;-66
2023/08/02 08:00:02;;;;;;;6.60;2.30;;;;;;;35.26;29.46;98933.48;103147;1257;137625;-66
2023/08/02 08:02:37;;;;;;;4.40;2.30;;;;;;;34.42;29.52;98941.66;103780;1253;102386;-80
2023/08/02 08:05:06;;;;;;;6.00;2.90;;;;;;;33.27;30.53;98944.17;103679;1252;101784;-81
2023/08/02 08:07:33;;;;;;;4.50;2.40;;;;;;;32.87;31.04;98944.28;103385;1253;137797;-78
2023/08/02 08:10:00;;;;;;;3.40;2.30;;;;;;;32.82;31.49;98937.36;103301;1253;98786;-79
2023/08/02 08:12:27;;;;;;;5.40;2.70;;;;;;;33.48;31.71;98937.81;103158;1253;137561;-77
2023/08/02 08:14:54;;;;;;;4.70;2.40;;;;;;;34.04;30.87;98941.05;103362;1254;101388;-81
2023/08/02 08:17:21;;;;;;;4.80;2.30;;;;;;;34.43;29.95;98947.47;103188;1254;100403;-82
2023/08/02 08:19:49;;;;;;;5.10;2.30;;;;;;;34.76;29.95;98948.09;103152;1257;137282;-80
2023/08/02 08:22:18;;;;;;;3.70;2.50;;;;;;;35.29;29.46;98943.80;103306;1257;100378;-74
2023/08/02 08:24:45;;;;;;;5.50;2.30;;;;;;;35.71;28.96;98941.47;103151;1254;137311;-73
2023/08/02 08:27:12;;;;;;;5.70;2.40;;;;;;;35.65;28.29;98938.60;103351;1257;102350;-79
2023/08/02 08:29:39;;;;;;;4.30;2.10;;;;;;;35.42;28.94;98941.41;103332;1254;99150;-72
2023/08/02 08:32:07;;;;;;;4.10;2.20;;;;;;;35.73;29.26;98942.92;103168;1253;137075;-72
2023/08/02 08:34:35;;;;;;;3.90;2.60;;;;;;;36.31;29.17;98944.40;103307;1253;99095;-72
2023/08/02 08:37:02;;;;;;;5.60;2.20;;;;;;;36.48;28.19;98945.66;103253;1256;137089;-71
2023/08/02 08:39:29;;;;;;;6.90;2.20;;;;;;;36.60;28.68;98944.44;103307;1257;101358;-72
2023/08/02 08:41:58;;;;;;;3.70;2.00;;;;;;;37.22;27.87;98953.06;103117;1253;137394;-72
2023/08/02 08:44:26;;;;;;;3.50;1.80;;;;;;;36.78;26.97;98951.09;103299;1257;96496;-71
2023/08/02 08:46:59;;;;;;;2.80;1.90;;;;;;;35.99;27.56;98942.37;103273;1253;99914;-71
2023/08/02 08:49:26;;;;;;;3.70;1.90;;;;;;;35.90;27.66;98946.77;103358;1256;137605;-72
2023/08/02 08:51:56;;;;;;;3.50;1.90;;;;;;;36.11;27.38;98954.84;103301;1257;102343;-72
2023/08/02 08:54:28;;;;;;;2.70;1.70;;;;;;;35.74;27.46;98958.94;103159;1253;137361;-71
2023/08/02 08:56:56;;;;;;;4.10;2.10;;;;;;;34.84;28.05;98966.09;104326;1253;94301;-71
2023/08/02 08:59:24;;;;;;;5.70;2.00;;;;;;;34.65;27.46;98972.65;103276;1256;99202;-74
2023/08/02 09:01:52;;;;;;;3.30;1.90;;;;;;;34.52;27.86;98971.58;103163;1254;137131;-73
2023/08/02 09:04:20;;;;;;;2.10;1.70;;;;;;;33.95;28.12;98971.14;103325;1254;102326;-74
2023/08/02 09:06:47;;;;;;;5.60;1.80;;;;;;;32.98;28.94;98967.91;103122;1254;137273;-73
2023/08/02 09:09:17;;;;;;;3.60;1.50;;;;;;;32.52;29.97;98972.16;103346;1252;96465;-74
2023/08/02 09:11:44;;;;;;;3.10;1.50;;;;;;;32.72;30.31;98966.82;103258;1253;100270;-73
2023/08/02 09:14:14;;;;;;;2.90;1.50;;;;;;;32.97;29.77;98967.27;103315;1257;96515;-72
2023/08/02 09:16:57;;;;;;;1.20;1.10;;;;;;;33.20;29.37;98962.69;103338;1257;102250;-68
2023/08/02 09:19:26;;;;;;;2.20;1.10;;;;;;;33.25;28.31;98962.48;103205;1253;137305;-71
2023/08/02 09:22:11;;;;;;;2.30;1.40;;;;;;;33.22;28.59;98960.80;103483;1253;97306;-69
2023/08/02 09:24:40;;;;;;;4.30;2.90;;;;;;;33.25;28.53;98958.48;103304;1253;137199;-69
2023/08/02 09:27:11;;;;;;;4.20;1.30;;;;;;;33.33;28.76;98958.10;103848;1253;96453;-69
2023/08/02 09:29:50;;;;;;;5.10;1.30;;;;;;;32.87;28.83;98961.84;103994;1253;102377;-69
2023/08/02 09:32:19;;;;;;;2.60;1.30;;;;;;;32.73;29.36;98957.76;103332;1257;98775;-69
2023/08/02 09:34:49;;;;;;;2.30;1.60;;;;;;;32.90;29.89;98952.95;103391;1253;96436;-67
2023/08/02 09:37:17;;;;;;;1.50;1.10;;;;;;;32.72;29.39;98948.19;103297;1257;138335;-67
2023/08/02 09:39:52;;;;;;;3.80;1.10;;;;;;;32.41;29.41;98947.60;103289;1254;96273;-67
2023/08/02 09:42:25;;;;;;;3.10;1.30;;;;;;;32.57;29.91;98949.27;103550;1256;137360;-66
2023/08/02 09:44:58;;;;;;;1.90;1.20;;;;;;;33.13;30.14;98943.99;103607;1253;99189;-68
2023/08/02 09:47:27;;;;;;;3.60;1.20;;;;;;;33.51;29.64;98947.48;103959;1254;96440;-68
2023/08/02 09:50:09;;;;;;;3.60;1.00;;;;;;;33.45;29.15;98953.14;103821;1254;137084;-68
2023/08/02 09:52:38;;;;;;;3.40;1.10;;;;;;;33.21;28.14;98953.55;103560;1253;96438;-68
2023/08/02 09:55:06;;;;;;;3.70;1.00;;;;;;;32.67;28.69;98953.42;103592;1256;137729;-68
2023/08/02 09:57:34;;;;;;;3.60;1.10;;;;;;;32.24;29.13;98951.14;103417;1254;99964;-68
2023/08/02 10:00:05;;;;;;;2.50;1.30;;;;;;;31.61;29.47;98947.30;103248;1254;141121;-67
2023/08/02 10:02:41;;;;;;;4.80;1.10;;;;;;;31.50;30.31;98944.97;103554;1256;108440;-68
2023/08/02 10:05:12;;;;;;;2.30;0.90;;;;;;;31.72;30.05;98942.98;103369;1254;96436;-66
2023/08/02 10:07:43;;;;;;;5.60;1.50;;;;;;;31.56;30.34;98944.06;103556;1254;137341;-68
2023/08/02 10:10:17;;;;;;;3.90;1.30;;;;;;;31.22;30.45;98941.19;103298;1256;106041;-67
2023/08/02 10:12:49;;;;;;;5.00;1.10;;;;;;;30.74;30.68;98946.01;103605;1253;137248;-67
2023/08/02 10:15:17;;;;;;;1.80;1.20;;;;;;;30.32;31.12;98947.16;103331;1252;108249;-67
2023/08/02 10:17:46;;;;;;;3.80;1.40;;;;;;;30.05;31.72;98942.85;103360;1254;96338;-67
2023/08/02 10:20:15;;;;;;;1.70;1.20;;;;;;;30.20;31.95;98941.79;104076;1253;137057;-68
2023/08/02 10:22:43;;;;;;;3.60;1.30;;;;;;;30.56;31.44;98938.78;103971;1254;106386;-67
2023/08/02 10:25:13;;;;;;;1.80;1.00;;;;;;;30.97;31.35;98929.34;104516;1253;137665;-67
2023/08/02 10:27:42;;;;;;;2.70;1.00;;;;;;;31.21;30.99;98932.83;103409;1255;107859;-67
2023/08/02 10:30:11;;;;;;;2.10;1.20;;;;;;;31.47;30.96;98933.91;103287;1256;137493;-67
2023/08/02 10:32:39;;;;;;;2.60;1.20;;;;;;;31.87;30.79;98926.80;103637;1254;110480;-66
2023/08/02 10:35:07;;;;;;;4.20;1.30;;;;;;;32.30;30.42;98926.69;103884;1253;100168;-66
2023/08/02 10:37:55;;;;;;;2.20;1.20;;;;;;;32.15;29.76;98927.05;103257;1253;138325;-67
2023/08/02 10:40:26;;;;;;;6.60;1.20;;;;;;;31.93;29.39;98927.26;103392;1254;108618;-67
2023/08/02 10:43:07;;;;;;;2.00;1.30;;;;;;;31.80;29.59;98919.14;104020;1252;138184;-66
2023/08/02 10:45:34;;;;;;;3.10;1.20;;;;;;;31.65;29.59;98911.21;104014;1255;109969;-66
2023/08/02 10:48:25;;;;;;;2.30;0.90;;;;;;;31.67;29.63;98903.52;103288;1253;137468;-67
2023/08/02 10:50:52;;;;;;;1.70;0.90;;;;;;;31.78;29.79;98898.88;103435;1253;96450;-67
2023/08/02 10:53:20;;;;;;;3.50;1.30;;;;;;;31.77;29.77;98896.81;103305;1257;109615;-67
2023/08/02 10:56:12;;;;;;;5.10;1.20;;;;;;;31.62;29.71;98892.45;103170;1257;137279;-67
2023/08/02 10:58:50;;;;;;;4.80;1.10;;;;;;;31.15;29.68;98888.52;104598;1252;110241;-67
2023/08/02 11:01:18;;;;;;;1.90;1.30;;;;;;;30.77;30.08;98888.58;103288;1253;137293;-67
2023/08/02 11:03:46;;;;;;;2.40;1.20;;;;;;;30.77;30.90;98880.71;103277;1253;96925;-69
2023/08/02 11:06:27;;;;;;;3.90;1.60;;;;;;;30.62;30.17;98884.26;103364;1256;137586;-66
2023/08/02 11:08:55;;;;;;;5.80;1.40;;;;;;;30.02;30.59;98882.08;103497;1256;96426;-69
2023/08/02 11:11:32;;;;;;;3.70;1.40;;;;;;;29.53;31.26;98882.81;103342;1253;111208;-67
2023/08/02 11:13:59;;;;;;;3.20;1.30;;;;;;;29.06;31.53;98880.34;103877;1253;137365;-67
2023/08/02 11:16:27;;;;;;;4.80;1.30;;;;;;;28.60;31.73;98885.75;103410;1253;96446;-67
2023/08/02 11:19:02;;;;;;;2.40;1.30;;;;;;;28.12;32.64;98878.57;103211;1253;137333;-67
2023/08/02 11:21:30;;;;;;;3.10;1.50;;;;;;;27.94;32.86;98880.77;103268;1254;96294;-70
2023/08/02 11:24:03;;;;;;;1.70;1.20;;;;;;;27.73;33.08;98884.25;103214;1254;137850;-66
2023/08/02 11:26:31;;;;;;;1.80;1.10;;;;;;;27.28;33.54;98886.98;103817;1253;107566;-67